Time;durP1;ratioP1;P1;durP2;ratioP2;P2;SDS_P1;SDS_P2;PMS_P1;PMS_P2;Temp;Humidity;BMP_temperature;BMP_pressure;BME280_temperature;BME280_humidity;BME280_pressure;Samples;Min_cycle;Max_cycle;Signal;HPM_P1;HPM_P2
2022/06/28 00:00:04;;;;;;;8.53;6.90;;;16.30;99.90;;;;;;5053902;28;20295;-77
2022/06/28 00:02:33;;;;;;;9.70;6.57;;;16.30;99.90;;;;;;5054223;28;20212;-77
2022/06/28 00:05:03;;;;;;;7.63;6.83;;;16.30;99.90;;;;;;5053458;28;20291;-78
2022/06/28 00:07:32;;;;;;;7.87;6.90;;;16.30;99.90;;;;;;5054067;28;20694;-76
2022/06/28 00:10:00;;;;;;;9.43;7.10;;;16.30;99.90;;;;;;5053095;28;20315;-77
2022/06/28 00:12:28;;;;;;;9.27;7.37;;;16.30;99.90;;;;;;5053197;28;20213;-77
2022/06/28 00:17:44;;;;;;;9.77;7.80;;;16.30;99.90;;;;;;5053693;28;20239;-76
2022/06/28 00:20:13;;;;;;;8.70;7.77;;;16.40;99.90;;;;;;5053094;28;20243;-78
2022/06/28 00:22:41;;;;;;;8.53;7.57;;;16.40;99.90;;;;;;5053609;28;20617;-77
2022/06/28 00:25:10;;;;;;;8.50;7.43;;;16.40;99.90;;;;;;5053443;28;20206;-76
2022/06/28 00:27:39;;;;;;;13.50;8.03;;;16.40;99.90;;;;;;5053337;28;20547;-78
2022/06/28 00:30:11;;;;;;;10.13;8.03;;;16.40;99.90;;;;;;5052741;28;20247;-77
2022/06/28 00:32:39;;;;;;;10.50;8.10;;;16.40;99.90;;;;;;5052928;28;20227;-77
2022/06/28 00:35:09;;;;;;;9.77;8.33;;;16.40;99.90;;;;;;5053646;28;20676;-77
2022/06/28 00:37:37;;;;;;;9.33;8.30;;;16.40;99.90;;;;;;5052903;28;20289;-78
2022/06/28 00:40:07;;;;;;;10.93;8.03;;;16.40;99.90;;;;;;5052670;28;20250;-78
2022/06/28 00:42:35;;;;;;;9.37;8.13;;;16.40;99.90;;;;;;5053042;28;20291;-76
2022/06/28 00:45:06;;;;;;;8.93;7.40;;;16.40;99.90;;;;;;5052854;28;20575;-77
2022/06/28 00:47:36;;;;;;;10.37;7.67;;;16.40;99.90;;;;;;5052730;28;20723;-77
2022/06/28 00:50:05;;;;;;;11.13;8.20;;;16.40;99.90;;;;;;5052253;28;20255;-77
2022/06/28 00:52:33;;;;;;;10.47;9.00;;;16.40;99.90;;;;;;5052884;28;20199;-77
2022/06/28 00:55:02;;;;;;;13.20;8.77;;;16.40;99.90;;;;;;5052820;28;20212;-77
2022/06/28 00:57:30;;;;;;;10.13;8.60;;;16.40;99.90;;;;;;5052951;28;20208;-77
2022/06/28 00:59:58;;;;;;;11.80;8.73;;;16.50;99.90;;;;;;5052644;28;20294;-77
2022/06/28 01:02:31;;;;;;;11.40;8.00;;;16.50;99.90;;;;;;5052841;28;20566;-77
2022/06/28 01:05:02;;;;;;;12.67;9.50;;;16.50;99.90;;;;;;5052424;28;20208;-78
2022/06/28 01:07:34;;;;;;;11.63;10.20;;;16.50;99.90;;;;;;5052687;28;20712;-77
2022/06/28 01:10:03;;;;;;;13.83;9.83;;;16.50;99.90;;;;;;5052699;28;20435;-77
2022/06/28 01:12:31;;;;;;;12.57;9.67;;;16.50;99.90;;;;;;5052507;28;20294;-77
2022/06/28 01:14:59;;;;;;;11.97;8.97;;;16.50;99.90;;;;;;5052978;28;20232;-77
2022/06/28 01:17:27;;;;;;;11.63;8.90;;;16.50;99.90;;;;;;5052544;28;20681;-77
2022/06/28 01:19:56;;;;;;;13.60;9.57;;;16.40;99.90;;;;;;5052519;28;20291;-77
2022/06/28 01:22:28;;;;;;;10.57;9.47;;;16.40;99.90;;;;;;5052548;28;20666;-78
2022/06/28 01:24:58;;;;;;;12.93;9.33;;;16.40;99.90;;;;;;5052848;28;20197;-77
2022/06/28 01:27:27;;;;;;;10.87;9.07;;;16.40;99.90;;;;;;5052497;28;20195;-77
2022/06/28 01:29:55;;;;;;;11.20;10.00;;;16.50;99.90;;;;;;5052421;28;20703;-77
2022/06/28 01:32:24;;;;;;;12.20;10.00;;;16.50;99.90;;;;;;5052831;28;20204;-77
2022/06/28 01:34:52;;;;;;;11.10;9.33;;;16.50;99.90;;;;;;5052611;28;20300;-76
2022/06/28 01:37:20;;;;;;;13.20;9.97;;;16.40;99.90;;;;;;5052467;28;20239;-78
2022/06/28 01:39:48;;;;;;;12.03;10.37;;;16.50;99.90;;;;;;5054381;28;20399;-77
2022/06/28 01:42:18;;;;;;;13.43;9.90;;;16.40;99.90;;;;;;5056383;28;20332;-76
2022/06/28 01:44:48;;;;;;;13.00;10.23;;;16.40;99.90;;;;;;5056640;28;20211;-78
2022/06/28 01:47:19;;;;;;;14.03;10.47;;;16.40;99.90;;;;;;5056721;28;20239;-76
2022/06/28 01:49:48;;;;;;;13.07;9.97;;;16.40;99.90;;;;;;5056275;28;20641;-76
2022/06/28 01:52:17;;;;;;;11.40;10.07;;;16.40;99.90;;;;;;5055830;28;20235;-77
2022/06/28 01:54:45;;;;;;;12.20;10.47;;;16.40;99.90;;;;;;5055917;28;20247;-77
2022/06/28 01:57:16;;;;;;;12.17;10.53;;;16.40;99.90;;;;;;5056536;28;20232;-77
2022/06/28 01:59:45;;;;;;;12.10;9.90;;;16.40;99.90;;;;;;5056712;28;20208;-78
2022/06/28 02:02:13;;;;;;;12.30;9.97;;;16.40;99.90;;;;;;5056297;28;20204;-78
2022/06/28 02:04:42;;;;;;;14.30;10.07;;;16.40;99.90;;;;;;5056242;28;20204;-79
2022/06/28 02:07:10;;;;;;;12.90;9.90;;;16.40;99.90;;;;;;5056367;28;20258;-77
2022/06/28 02:09:39;;;;;;;13.67;10.33;;;16.40;99.90;;;;;;5055887;28;20676;-79
2022/06/28 02:12:07;;;;;;;13.60;9.67;;;16.40;99.90;;;;;;5055904;28;20224;-77
2022/06/28 02:14:42;;;;;;;11.47;10.10;;;16.40;99.90;;;;;;5056357;28;20580;-77
2022/06/28 02:17:11;;;;;;;12.93;10.50;;;16.30;99.90;;;;;;5038243;28;20245;-79
2022/06/28 02:19:40;;;;;;;15.43;11.00;;;16.20;99.90;;;;;;5053065;28;20216;-79
2022/06/28 02:22:08;;;;;;;12.43;9.37;;;16.20;99.90;;;;;;5055571;28;20670;-79
2022/06/28 02:24:36;;;;;;;12.77;10.07;;;16.20;99.90;;;;;;5051045;28;20254;-76
2022/06/28 02:27:05;;;;;;;12.33;9.57;;;16.10;99.90;;;;;;5056250;28;20236;-79
2022/06/28 02:29:33;;;;;;;13.97;10.90;;;16.10;99.90;;;;;;5055750;28;20628;-77
2022/06/28 02:32:02;;;;;;;12.57;11.17;;;16.10;99.90;;;;;;5055299;28;20247;-78
2022/06/28 02:42:48;;;;;;;17.77;12.70;;;16.00;99.90;;;;;;5055666;28;20251;-80
2022/06/28 02:45:16;;;;;;;17.00;12.40;;;15.90;99.90;;;;;;5055687;28;20291;-78
2022/06/28 02:47:45;;;;;;;14.03;11.37;;;15.90;99.90;;;;;;5054823;28;20247;-80
2022/06/28 02:50:15;;;;;;;17.27;12.73;;;15.90;99.90;;;;;;5054919;28;20294;-76
2022/06/28 02:52:43;;;;;;;18.57;13.10;;;15.90;99.90;;;;;;5054447;28;20228;-78
2022/06/28 02:55:11;;;;;;;17.50;14.03;;;15.90;99.90;;;;;;5054995;28;20205;-79
2022/06/28 02:57:40;;;;;;;15.67;12.40;;;15.90;99.90;;;;;;5054603;28;20236;-78
2022/06/28 03:00:11;;;;;;;15.80;12.80;;;15.90;99.90;;;;;;5054947;28;20686;-78
2022/06/28 03:02:41;;;;;;;14.67;12.43;;;15.90;99.90;;;;;;5055858;28;20212;-78
2022/06/28 03:05:15;;;;;;;14.17;11.50;;;15.90;99.90;;;;;;5055285;28;20254;-78
2022/06/28 03:07:44;;;;;;;13.13;11.77;;;15.90;99.90;;;;;;5043109;28;20236;-77
2022/06/28 03:10:13;;;;;;;18.40;12.07;;;15.80;99.90;;;;;;5034594;28;20275;-80
2022/06/28 03:12:41;;;;;;;14.07;11.50;;;15.80;99.90;;;;;;5053482;28;20649;-78
2022/06/28 03:15:13;;;;;;;12.30;10.97;;;15.80;99.90;;;;;;5055235;28;20204;-77
2022/06/28 03:17:47;;;;;;;14.13;11.93;;;15.80;99.90;;;;;;5054786;28;20200;-78
2022/06/28 03:20:18;;;;;;;14.20;12.70;;;15.80;99.90;;;;;;5054910;28;20204;-79
2022/06/28 03:22:46;;;;;;;15.07;12.17;;;15.80;99.90;;;;;;5055153;28;20197;-78
2022/06/28 03:25:14;;;;;;;13.27;11.87;;;15.80;99.90;;;;;;5037618;28;20205;-77
2022/06/28 03:27:43;;;;;;;17.13;11.63;;;15.70;99.90;;;;;;5054558;28;20283;-78
2022/06/28 03:30:12;;;;;;;14.27;11.77;;;15.70;99.90;;;;;;5054673;28;20213;-79
2022/06/28 03:32:44;;;;;;;15.63;11.70;;;15.70;99.90;;;;;;5054308;28;20251;-77
2022/06/28 03:35:12;;;;;;;15.70;11.60;;;15.70;99.90;;;;;;5054458;28;20212;-78
2022/06/28 03:37:42;;;;;;;16.67;11.73;;;15.70;99.90;;;;;;5054583;28;20630;-74
2022/06/28 03:40:10;;;;;;;16.47;13.00;;;15.60;99.90;;;;;;5054381;28;20200;-76
2022/06/28 03:42:39;;;;;;;16.40;11.97;;;15.70;99.90;;;;;;5054285;28;20212;-76
2022/06/28 03:45:09;;;;;;;18.27;11.97;;;15.60;99.90;;;;;;5054422;28;20197;-76
2022/06/28 03:47:37;;;;;;;16.10;12.50;;;15.70;99.90;;;;;;5053879;28;20248;-78
2022/06/28 03:50:07;;;;;;;17.13;12.47;;;15.70;99.90;;;;;;5054105;28;20296;-77
2022/06/28 03:52:35;;;;;;;16.00;12.33;;;15.70;99.90;;;;;;5052672;28;20228;-77
2022/06/28 03:55:07;;;;;;;16.03;12.30;;;15.70;99.90;;;;;;5054248;28;20227;-75
2022/06/28 03:57:36;;;;;;;16.03;12.27;;;15.80;99.90;;;;;;5054434;28;20216;-78
2022/06/28 04:00:05;;;;;;;17.70;12.93;;;15.80;99.90;;;;;;5054380;28;20209;-78
2022/06/28 04:02:33;;;;;;;15.10;11.90;;;15.80;99.90;;;;;;5054163;28;20334;-75
2022/06/28 04:05:02;;;;;;;18.03;12.90;;;15.90;99.90;;;;;;5054354;28;20608;-78
2022/06/28 04:07:30;;;;;;;19.03;13.30;;;15.90;99.90;;;;;;5054780;28;20251;-76
2022/06/28 04:09:58;;;;;;;18.80;12.93;;;16.00;99.90;;;;;;5054732;28;20618;-77
2022/06/28 04:12:28;;;;;;;14.00;11.40;;;16.00;99.90;;;;;;5051226;28;20346;-78
2022/06/28 04:14:56;;;;;;;13.00;10.47;;;16.00;99.90;;;;;;5035045;28;20605;-77
2022/06/28 04:17:24;;;;;;;17.93;11.47;;;16.10;99.90;;;;;;5038652;28;20251;-76
2022/06/28 04:19:53;;;;;;;18.83;13.13;;;16.10;99.90;;;;;;5032709;28;20738;-77
2022/06/28 04:22:21;;;;;;;18.33;11.27;;;16.10;99.90;;;;;;5042094;28;20204;-75
2022/06/28 04:24:49;;;;;;;13.17;10.40;;;16.20;99.90;;;;;;5059146;28;20258;-78
2022/06/28 04:27:18;;;;;;;13.30;9.97;;;16.20;99.90;;;;;;5055410;28;20212;-77
2022/06/28 04:29:47;;;;;;;13.90;10.53;;;16.30;99.90;;;;;;5053921;28;20232;-78
2022/06/28 04:32:15;;;;;;;14.27;9.93;;;16.30;99.90;;;;;;5053736;28;20263;-78
2022/06/28 04:34:44;;;;;;;15.23;10.63;;;16.40;99.90;;;;;;5044520;28;20212;-77
2022/06/28 04:37:12;;;;;;;13.00;9.97;;;16.50;99.90;;;;;;5033953;28;20310;-77
2022/06/28 04:39:41;;;;;;;12.07;9.40;;;16.50;99.90;;;;;;5042967;28;20219;-79
2022/06/28 04:42:09;;;;;;;16.10;9.93;;;16.50;99.90;;;;;;5053288;28;20273;-78
2022/06/28 04:44:38;;;;;;;11.27;9.67;;;16.50;99.90;;;;;;5051097;28;20236;-77
2022/06/28 04:47:09;;;;;;;15.63;9.37;;;16.50;99.90;;;;;;5052465;28;20717;-76
2022/06/28 04:49:37;;;;;;;14.73;9.50;;;16.50;99.90;;;;;;5052798;28;20212;-77
2022/06/28 04:52:06;;;;;;;13.83;9.43;;;16.50;99.90;;;;;;5053378;28;20642;-74
2022/06/28 04:54:34;;;;;;;10.10;8.53;;;16.60;99.90;;;;;;5053778;28;20239;-79
2022/06/28 04:57:02;;;;;;;12.47;8.67;;;16.50;99.90;;;;;;5052471;28;20200;-77
2022/06/28 04:59:31;;;;;;;9.80;8.80;;;16.60;99.90;;;;;;5033845;28;20209;-76
2022/06/28 05:01:59;;;;;;;10.13;9.07;;;16.60;99.90;;;;;;5051516;28;20309;-76
2022/06/28 05:04:29;;;;;;;10.63;8.90;;;16.60;99.90;;;;;;5051671;28;20204;-76
2022/06/28 05:06:57;;;;;;;9.43;8.30;;;16.70;99.90;;;;;;5051077;28;20224;-76
2022/06/28 05:09:25;;;;;;;12.17;8.30;;;16.70;99.90;;;;;;5051525;28;20247;-77
2022/06/28 05:12:03;;;;;;;9.03;8.13;;;16.80;99.90;;;;;;5052147;28;20297;-76
2022/06/28 05:14:31;;;;;;;13.27;8.37;;;16.90;99.90;;;;;;5051554;28;20232;-77
2022/06/28 05:16:59;;;;;;;10.73;8.50;;;17.00;99.90;;;;;;5051912;28;20208;-76
2022/06/28 05:19:30;;;;;;;9.70;8.67;;;17.00;99.90;;;;;;5052655;28;20223;-76
2022/06/28 05:21:58;;;;;;;9.80;8.07;;;17.00;99.90;;;;;;5052745;28;20328;-75
2022/06/28 05:24:27;;;;;;;11.83;8.00;;;17.10;99.90;;;;;;5046376;28;20592;-77
2022/06/28 05:26:55;;;;;;;10.07;7.73;;;17.20;99.90;;;;;;5052855;28;20270;-77
2022/06/28 05:29:23;;;;;;;9.30;7.40;;;17.20;99.90;;;;;;5052415;28;20262;-76
2022/06/28 05:31:51;;;;;;;9.13;7.10;;;17.30;99.90;;;;;;5052907;28;20238;-75
2022/06/28 05:34:20;;;;;;;8.23;7.07;;;17.40;99.90;;;;;;5052588;28;20204;-75
2022/06/28 05:36:49;;;;;;;8.53;7.40;;;17.40;99.90;;;;;;5053133;28;20204;-74
2022/06/28 05:39:18;;;;;;;7.07;6.37;;;17.60;99.90;;;;;;5051984;28;20254;-75
2022/06/28 05:41:46;;;;;;;7.73;6.47;;;17.70;99.90;;;;;;5052244;28;20597;-74
2022/06/28 05:44:15;;;;;;;9.60;6.40;;;17.90;99.90;;;;;;5052294;28;20251;-75
2022/06/28 05:46:44;;;;;;;10.50;6.40;;;18.10;99.90;;;;;;5052263;28;20208;-74
2022/06/28 05:49:13;;;;;;;8.60;6.27;;;18.10;99.90;;;;;;5051922;28;20298;-76
2022/06/28 05:51:41;;;;;;;7.50;5.40;;;18.30;99.90;;;;;;5052653;28;20208;-76
2022/06/28 05:54:11;;;;;;;6.13;5.30;;;18.60;99.90;;;;;;5052214;28;20227;-75
2022/06/28 05:56:39;;;;;;;7.23;5.37;;;19.00;99.90;;;;;;5051989;28;20239;-74
2022/06/28 05:59:08;;;;;;;7.97;4.53;;;19.50;99.90;;;;;;5053157;28;20390;-76
2022/06/28 06:01:36;;;;;;;8.30;4.70;;;19.80;99.90;;;;;;5053088;28;20239;-76
2022/06/28 06:04:05;;;;;;;5.23;4.00;;;20.10;99.90;;;;;;5052758;28;20227;-77
2022/06/28 06:06:33;;;;;;;4.77;4.00;;;20.50;99.90;;;;;;5052950;28;20679;-76
2022/06/28 06:09:01;;;;;;;4.90;4.20;;;20.80;99.90;;;;;;5052608;28;20626;-77
2022/06/28 06:11:31;;;;;;;6.97;4.67;;;20.70;99.90;;;;;;5035495;28;20248;-77
2022/06/28 06:13:59;;;;;;;8.37;5.33;;;20.20;99.90;;;;;;5033223;28;20765;-75
2022/06/28 06:16:28;;;;;;;7.17;4.90;;;19.70;99.90;;;;;;5032409;28;20620;-75
2022/06/28 06:18:56;;;;;;;8.93;5.30;;;19.70;99.90;;;;;;5032424;28;20205;-76
2022/06/28 06:21:24;;;;;;;7.17;5.23;;;19.50;99.90;;;;;;5032767;28;20215;-77
2022/06/28 06:23:53;;;;;;;8.07;4.70;;;19.50;99.90;;;;;;5033229;28;20230;-76
2022/06/28 06:26:21;;;;;;;6.57;4.10;;;20.00;99.90;;;;;;5034770;28;20263;-78
2022/06/28 06:28:51;;;;;;;6.07;3.93;;;20.20;99.90;;;;;;5035690;28;20542;-76
2022/06/28 06:31:19;;;;;;;6.40;3.97;;;19.90;99.90;;;;;;5035446;28;20213;-75
2022/06/28 06:33:48;;;;;;;5.83;4.43;;;20.20;99.90;;;;;;5035477;28;20316;-76
2022/06/28 06:36:16;;;;;;;6.73;4.10;;;20.50;99.90;;;;;;5027307;28;20296;-74
2022/06/28 06:38:46;;;;;;;4.73;3.40;;;20.70;99.90;;;;;;5035904;28;20205;-76
2022/06/28 06:41:14;;;;;;;4.47;3.30;;;20.80;99.90;;;;;;5035638;28;20229;-76
2022/06/28 06:43:42;;;;;;;2.83;2.57;;;20.70;99.90;;;;;;5035524;28;20212;-74
2022/06/28 06:46:12;;;;;;;4.40;2.97;;;21.00;99.90;;;;;;5034639;28;20259;-74
2022/06/28 06:48:40;;;;;;;4.67;2.53;;;21.60;99.90;;;;;;5034537;28;20251;-75
2022/06/28 06:51:08;;;;;;;4.50;3.00;;;22.00;99.90;;;;;;5035058;28;20209;-75
2022/06/28 06:53:37;;;;;;;4.27;2.70;;;21.70;99.90;;;;;;5034881;28;20260;-75
2022/06/28 06:56:05;;;;;;;3.27;2.80;;;21.70;99.90;;;;;;5034413;28;20666;-74
2022/06/28 06:58:33;;;;;;;4.50;3.00;;;22.30;99.90;;;;;;5034725;28;20243;-74
2022/06/28 07:01:02;;;;;;;4.03;2.67;;;22.60;99.90;;;;;;5034744;28;20236;-77
2022/06/28 07:03:52;;;;;;;5.07;2.70;;;23.10;99.90;;;;;;5035460;28;20209;-78
2022/06/28 07:06:20;;;;;;;5.87;2.57;;;24.80;99.90;;;;;;5034345;28;20260;-78
2022/06/28 07:08:48;;;;;;;5.93;2.00;;;25.90;99.90;;;;;;5041219;28;20236;-78
2022/06/28 07:11:17;;;;;;;8.38;2.67;;;27.20;99.90;;;;;;5054503;28;20678;-78
2022/06/28 07:13:45;;;;;;;3.40;2.28;;;27.60;99.90;;;;;;5054668;28;20246;-79
2022/06/28 07:16:13;;;;;;;2.70;2.10;;;28.10;99.90;;;;;;5054881;28;20615;-77
2022/06/28 07:18:42;;;;;;;3.20;2.40;;;28.00;99.90;;;;;;5054488;28;20231;-79
2022/06/28 07:21:12;;;;;;;2.35;2.08;;;27.20;99.90;;;;;;5054434;28;20216;-77
2022/06/28 07:23:41;;;;;;;3.60;2.30;;;26.90;99.90;;;;;;5054128;28;20250;-77
2022/06/28 07:26:10;;;;;;;2.70;2.20;;;24.80;99.90;;;;;;5054113;28;20232;-77
2022/06/28 07:28:39;;;;;;;6.45;2.03;;;24.90;99.90;;;;;;5054145;28;20789;-77
2022/06/28 07:31:07;;;;;;;4.47;2.58;;;24.90;99.90;;;;;;5054241;28;20236;-82
2022/06/28 07:33:36;;;;;;;4.35;2.42;;;26.10;99.90;;;;;;5053773;28;20225;-78
2022/06/28 07:36:04;;;;;;;4.55;2.33;;;26.20;99.90;;;;;;5053679;28;20223;-77
2022/06/28 07:38:34;;;;;;;5.00;2.67;;;25.90;99.90;;;;;;5053211;28;20269;-78
2022/06/28 07:41:02;;;;;;;6.03;2.73;;;24.60;99.90;;;;;;5053545;28;20636;-78
2022/06/28 07:43:30;;;;;;;5.90;2.70;;;23.70;99.90;;;;;;5054047;28;20208;-77
2022/06/28 07:45:59;;;;;;;3.60;2.50;;;23.50;99.90;;;;;;5054286;28;20208;-76
2022/06/28 07:48:28;;;;;;;4.57;2.70;;;22.50;99.90;;;;;;5054368;28;20216;-77
2022/06/28 07:53:45;;;;;;;3.93;2.50;;;22.30;99.90;;;;;;5053849;28;20608;-76
2022/06/28 07:56:13;;;;;;;3.40;3.10;;;23.10;99.90;;;;;;5053626;28;20627;-77
2022/06/28 07:58:42;;;;;;;4.17;2.50;;;23.80;99.90;;;;;;5053556;28;20222;-76
2022/06/28 08:01:10;;;;;;;5.40;2.43;;;24.40;99.90;;;;;;5053537;28;20219;-77
2022/06/28 08:03:38;;;;;;;5.90;2.20;;;23.90;99.90;;;;;;5053824;28;20250;-78
2022/06/28 08:06:07;;;;;;;3.47;2.30;;;24.00;99.90;;;;;;5053619;28;20236;-75
2022/06/28 08:08:35;;;;;;;4.80;2.67;;;23.20;99.90;;;;;;5053202;28;20674;-77
2022/06/28 08:11:05;;;;;;;3.70;2.50;;;22.90;99.90;;;;;;5053454;28;20204;-75
2022/06/28 08:13:33;;;;;;;3.47;2.60;;;22.90;99.90;;;;;;5053378;28;20228;-77
2022/06/28 08:16:02;;;;;;;3.73;2.60;;;23.50;99.90;;;;;;5053200;28;20215;-78
2022/06/28 08:18:30;;;;;;;5.03;2.50;;;24.50;99.90;;;;;;5053003;28;20208;-78
2022/06/28 08:20:58;;;;;;;2.57;2.23;;;25.30;99.90;;;;;;5052712;28;20263;-79
2022/06/28 08:23:27;;;;;;;3.17;2.45;;;26.70;99.90;;;;;;5053319;28;20336;-79
2022/06/28 08:25:55;;;;;;;3.15;2.00;;;27.50;99.90;;;;;;5053562;28;20598;-79
2022/06/28 08:28:25;;;;;;;3.65;1.90;;;26.80;99.90;;;;;;5053110;28;20289;-76
2022/06/28 08:30:54;;;;;;;2.80;1.90;;;26.60;99.90;;;;;;5052628;28;20224;-76
2022/06/28 08:33:22;;;;;;;4.20;1.77;;;27.40;99.90;;;;;;5053388;28;20208;-79
2022/06/28 08:35:51;;;;;;;3.10;2.00;;;27.50;99.90;;;;;;5053113;28;20200;-78
2022/06/28 08:38:19;;;;;;;3.50;1.83;;;27.60;99.90;;;;;;5052650;28;20249;-79
2022/06/28 08:40:49;;;;;;;3.78;1.83;;;28.00;99.90;;;;;;5052374;28;20216;-79
2022/06/28 08:43:17;;;;;;;5.07;1.98;;;28.80;99.90;;;;;;5052887;28;20231;-79
2022/06/28 08:45:47;;;;;;;2.78;1.88;;;29.50;99.90;;;;;;5052975;28;20204;-77
2022/06/28 08:48:22;;;;;;;2.88;1.75;;;29.60;99.90;;;;;;5052120;28;20689;-79
2022/06/28 08:50:53;;;;;;;2.25;1.60;;;29.90;98.60;;;;;;5041261;28;20654;-79
2022/06/28 08:53:23;;;;;;;2.30;1.80;;;29.90;99.90;;;;;;5046639;28;20200;-77
2022/06/28 08:55:52;;;;;;;1.98;1.52;;;30.20;98.10;;;;;;5051416;28;20255;-79
2022/06/28 08:58:22;;;;;;;4.72;1.80;;;30.40;97.30;;;;;;5032512;28;20204;-79
2022/06/28 09:00:52;;;;;;;2.67;1.80;;;31.20;94.90;;;;;;5032165;28;20291;-78
2022/06/28 09:03:20;;;;;;;3.22;1.35;;;30.30;95.80;;;;;;5032623;28;20213;-79
2022/06/28 09:05:48;;;;;;;3.80;1.67;;;30.10;95.00;;;;;;5036807;28;20289;-78
2022/06/28 09:08:16;;;;;;;3.97;1.60;;;29.50;97.20;;;;;;5048724;28;20604;-78
2022/06/28 09:10:45;;;;;;;3.33;1.75;;;30.20;97.60;;;;;;5031729;28;20205;-78
2022/06/28 09:13:18;;;;;;;3.85;1.90;;;30.50;96.70;;;;;;5032404;28;20197;-77
2022/06/28 09:15:49;;;;;;;4.65;1.70;;;29.60;97.10;;;;;;5031832;28;20346;-76
2022/06/28 09:18:19;;;;;;;2.67;1.55;;;30.20;96.80;;;;;;5032011;28;20201;-79
2022/06/28 09:20:52;;;;;;;3.15;1.70;;;29.80;96.00;;;;;;5031555;28;20259;-78
2022/06/28 09:23:29;;;;;;;3.80;1.92;;;30.40;97.50;;;;;;5032354;28;20190;-79
2022/06/28 09:26:05;;;;;;;2.47;1.83;;;30.50;98.60;;;;;;5032333;28;20671;-79
2022/06/28 09:28:34;;;;;;;2.63;1.83;;;29.80;97.80;;;;;;5031942;28;20278;-77
2022/06/28 09:31:17;;;;;;;2.63;2.22;;;30.00;96.40;;;;;;5031876;28;20213;-79
2022/06/28 09:33:49;;;;;;;3.50;1.70;;;30.30;97.70;;;;;;5032161;28;20227;-78
2022/06/28 09:36:19;;;;;;;1.83;1.73;;;30.40;95.30;;;;;;5031828;28;20213;-78
2022/06/28 09:38:47;;;;;;;1.73;1.40;;;31.50;93.40;;;;;;5032220;28;20208;-79
2022/06/28 09:41:23;;;;;;;2.63;1.70;;;32.40;92.50;;;;;;5031729;28;20221;-78
2022/06/28 09:43:57;;;;;;;3.72;1.70;;;31.80;90.80;;;;;;5032137;28;20197;-78
2022/06/28 09:46:26;;;;;;;1.83;1.60;;;31.30;92.50;;;;;;5032260;28;20224;-79
2022/06/28 09:49:01;;;;;;;3.15;1.70;;;31.20;92.90;;;;;;5031854;28;20213;-79
2022/06/28 09:51:31;;;;;;;2.75;1.75;;;31.40;93.60;;;;;;5033680;28;20238;-77
2022/06/28 09:54:04;;;;;;;2.90;1.73;;;31.30;93.30;;;;;;5033878;28;20204;-78
2022/06/28 09:56:54;;;;;;;2.88;1.60;;;30.90;94.80;;;;;;5033644;28;20190;-79
2022/06/28 09:59:24;;;;;;;1.58;1.42;;;30.40;94.80;;;;;;5031619;28;20681;-78
2022/06/28 10:01:55;;;;;;;2.40;1.40;;;30.80;93.20;;;;;;5034752;28;20280;-79
2022/06/28 10:04:26;;;;;;;3.63;1.50;;;31.80;93.70;;;;;;5040939;28;20263;-80
2022/06/28 10:06:55;;;;;;;2.92;1.48;;;32.20;92.80;;;;;;5054967;28;20243;-78
2022/06/28 10:09:24;;;;;;;3.05;1.60;;;32.30;88.20;;;;;;5055197;28;20702;-78
2022/06/28 10:17:39;;;;;;;3.72;1.40;;;31.20;91.40;;;;;;5056493;28;20334;-78
2022/06/28 10:20:13;;;;;;;2.03;1.40;;;31.80;91.80;;;;;;5057496;28;20634;-75
2022/06/28 10:22:41;;;;;;;2.25;1.35;;;30.70;91.60;;;;;;5055919;28;20193;-75
2022/06/28 10:25:22;;;;;;;3.75;1.70;;;30.50;91.00;;;;;;5055349;28;20215;-79
2022/06/28 10:27:52;;;;;;;1.60;1.45;;;29.60;91.60;;;;;;5056117;28;20196;-77
2022/06/28 10:30:28;;;;;;;5.10;1.55;;;29.20;94.40;;;;;;5055559;28;20212;-75
2022/06/28 10:33:03;;;;;;;2.10;1.70;;;28.20;94.60;;;;;;5055244;28;20251;-75
2022/06/28 10:36:12;;;;;;;1.88;1.75;;;27.20;97.10;;;;;;5054940;28;20231;-74
2022/06/28 10:39:18;;;;;;;1.77;1.67;;;26.40;99.60;;;;;;5055157;28;20259;-74
2022/06/28 10:41:47;;;;;;;3.30;2.00;;;26.00;99.90;;;;;;5054867;28;20228;-76
2022/06/28 10:44:18;;;;;;;3.50;1.90;;;26.10;99.90;;;;;;5054853;28;20693;-75
2022/06/28 10:47:10;;;;;;;1.93;1.80;;;26.30;99.90;;;;;;5054675;28;20562;-74
2022/06/28 10:49:57;;;;;;;3.70;2.33;;;26.10;99.90;;;;;;5054988;28;20691;-75
2022/06/28 10:52:26;;;;;;;2.70;1.97;;;25.90;99.90;;;;;;5055044;28;20251;-74
2022/06/28 10:55:21;;;;;;;2.13;1.80;;;26.20;99.90;;;;;;5054650;28;20256;-74
2022/06/28 10:58:05;;;;;;;2.00;1.73;;;26.10;99.90;;;;;;5054967;28;20208;-75
2022/06/28 11:00:35;;;;;;;2.53;1.90;;;26.00;99.90;;;;;;5054295;28;20196;-74
2022/06/28 11:03:05;;;;;;;3.90;1.97;;;25.60;99.90;;;;;;5054469;28;20250;-74
2022/06/28 11:05:50;;;;;;;2.00;1.90;;;25.50;99.90;;;;;;5054396;28;20258;-76
2022/06/28 11:08:37;;;;;;;2.00;1.80;;;25.30;99.90;;;;;;5054663;28;20207;-74
2022/06/28 11:11:08;;;;;;;1.93;1.80;;;25.00;99.90;;;;;;5054527;28;20196;-74
2022/06/28 11:13:36;;;;;;;2.67;1.60;;;25.00;99.90;;;;;;5053695;28;20258;-75
2022/06/28 11:16:05;;;;;;;2.10;1.90;;;24.70;99.90;;;;;;5054677;28;20279;-76
2022/06/28 11:18:34;;;;;;;2.07;1.87;;;24.60;99.90;;;;;;5054349;28;20585;-76
2022/06/28 11:21:02;;;;;;;3.50;1.90;;;24.40;99.90;;;;;;5054138;28;20617;-74
2022/06/28 11:23:32;;;;;;;3.77;1.90;;;24.00;99.90;;;;;;5054622;28;20232;-74
2022/06/28 11:29:01;;;;;;;3.13;2.10;;;23.70;99.90;;;;;;5053715;28;20682;-75
2022/06/28 11:31:31;;;;;;;3.43;1.90;;;23.70;99.90;;;;;;5054585;28;20196;-74
2022/06/28 11:34:00;;;;;;;2.63;2.20;;;23.50;99.90;;;;;;5054433;28;20216;-76
2022/06/28 11:36:31;;;;;;;3.77;2.40;;;23.50;99.90;;;;;;5055151;28;20228;-74
2022/06/28 11:39:04;;;;;;;5.07;2.43;;;23.40;99.90;;;;;;5055528;28;20577;-76
2022/06/28 11:41:35;;;;;;;2.77;1.90;;;23.20;99.90;;;;;;5055441;28;20230;-74
2022/06/28 11:44:05;;;;;;;2.30;2.00;;;23.30;99.90;;;;;;5056060;28;20227;-74
2022/06/28 11:46:35;;;;;;;5.13;2.10;;;23.20;99.90;;;;;;5055463;28;20193;-76
2022/06/28 11:49:04;;;;;;;3.13;2.00;;;23.40;99.90;;;;;;5055116;28;20253;-76
2022/06/28 11:51:33;;;;;;;5.13;2.10;;;23.50;99.90;;;;;;5055188;28;20228;-74
2022/06/28 11:54:07;;;;;;;2.50;2.30;;;23.60;99.90;;;;;;5055254;28;20212;-74
2022/06/28 11:56:46;;;;;;;3.40;2.00;;;23.40;99.90;;;;;;5055411;28;20215;-72
2022/06/28 11:59:17;;;;;;;4.43;2.47;;;23.20;99.90;;;;;;5055212;28;20285;-73
2022/06/28 12:01:45;;;;;;;2.27;2.07;;;23.00;99.90;;;;;;5054689;28;20543;-75
2022/06/28 12:04:21;;;;;;;2.60;2.10;;;22.90;99.90;;;;;;5053586;28;20642;-75
2022/06/28 12:06:50;;;;;;;2.33;2.00;;;22.90;99.90;;;;;;5053952;28;20732;-75
2022/06/28 12:09:18;;;;;;;4.47;2.37;;;23.00;99.90;;;;;;5053689;28;20212;-75
2022/06/28 12:11:56;;;;;;;2.60;2.20;;;22.90;99.90;;;;;;5054077;28;20216;-76
2022/06/28 12:14:33;;;;;;;4.17;2.33;;;22.90;99.90;;;;;;5053460;28;20541;-74
2022/06/28 12:17:03;;;;;;;2.60;2.17;;;22.90;99.90;;;;;;5053020;28;20784;-74
2022/06/28 12:19:38;;;;;;;2.50;2.30;;;22.80;99.90;;;;;;5053332;28;20218;-75
2022/06/28 12:22:09;;;;;;;2.80;1.90;;;22.80;99.90;;;;;;5053302;28;20226;-74
2022/06/28 12:24:45;;;;;;;2.27;2.07;;;22.80;99.90;;;;;;5052972;28;20593;-75
2022/06/28 12:27:15;;;;;;;4.03;2.20;;;22.90;99.90;;;;;;5053177;28;20248;-74
2022/06/28 12:29:46;;;;;;;3.10;2.33;;;22.80;99.90;;;;;;5053040;28;20216;-75
2022/06/28 12:32:16;;;;;;;4.90;2.23;;;22.70;99.90;;;;;;5053237;28;20615;-74
2022/06/28 12:35:06;;;;;;;3.70;1.90;;;22.80;99.90;;;;;;5052998;28;20208;-74
2022/06/28 12:37:36;;;;;;;4.20;2.27;;;22.90;99.90;;;;;;5053148;28;20224;-75
2022/06/28 12:40:06;;;;;;;2.60;1.90;;;22.90;99.90;;;;;;5053601;28;20208;-74
2022/06/28 12:42:35;;;;;;;2.30;2.10;;;22.80;99.90;;;;;;5053977;28;20685;-75
2022/06/28 12:45:07;;;;;;;2.27;2.07;;;22.80;99.90;;;;;;5053299;28;20200;-75
2022/06/28 12:47:36;;;;;;;2.30;2.10;;;22.60;99.90;;;;;;5053283;28;20189;-73
2022/06/28 12:50:08;;;;;;;3.10;2.30;;;22.60;99.90;;;;;;5053243;28;20208;-75
2022/06/28 12:52:38;;;;;;;4.77;2.37;;;22.60;99.90;;;;;;5053809;28;20219;-74
2022/06/28 12:55:08;;;;;;;2.67;2.23;;;22.50;99.90;;;;;;5053551;28;20258;-74
2022/06/28 12:57:37;;;;;;;5.23;2.40;;;22.40;99.90;;;;;;5052973;28;20235;-74
2022/06/28 13:00:11;;;;;;;3.37;2.20;;;22.50;99.90;;;;;;5048991;28;20201;-76
2022/06/28 13:02:39;;;;;;;4.37;2.40;;;22.60;99.90;;;;;;5033215;28;20655;-76
2022/06/28 13:05:10;;;;;;;2.77;2.37;;;22.40;99.90;;;;;;5034546;28;20205;-76
2022/06/28 13:07:41;;;;;;;4.37;2.50;;;22.40;99.90;;;;;;5038241;28;20224;-77
2022/06/28 13:10:11;;;;;;;3.00;2.40;;;22.40;99.90;;;;;;5039136;28;20272;-77
2022/06/28 13:12:39;;;;;;;4.13;2.50;;;22.30;99.90;;;;;;5041305;28;20204;-76
2022/06/28 13:15:10;;;;;;;2.67;2.20;;;22.30;99.90;;;;;;5037796;28;20232;-76
2022/06/28 13:17:39;;;;;;;3.27;2.40;;;22.20;99.90;;;;;;5037626;28;20283;-76